Time,TemperatureF,DewpointF,PressureIn,WindDirection,WindDirectionDegrees,WindSpeedMPH,WindSpeedGustMPH,Humidity,HourlyPrecipIn,Conditions,Clouds,dailyrainin,SoftwareType,DateUTC
2013-12-03 00:42:00,31.0,22.0,-100.00,WNW,295,8.0,14.0,69,-99.99,,,-99.99,,2013-12-03 08:42:00,
2013-12-03 01:21:00,30.0,21.0,-100.00,WNW,285,6.0,12.0,67,-99.99,,,-99.99,,2013-12-03 09:21:00,
2013-12-03 01:43:00,30.0,21.0,-100.00,NNW,345,6.0,13.0,67,-99.99,,,-99.99,,2013-12-03 09:43:00,
2013-12-03 01:54:00,30.0,20.0,-100.00,NW,305,5.0,15.0,67,-99.99,,,-99.99,,2013-12-03 09:54:00,
2013-12-03 02:02:00,30.0,20.0,-100.00,NW,305,5.0,15.0,67,-99.99,,,-99.99,,2013-12-03 10:02:00,
2013-12-03 03:42:00,29.0,20.0,-100.00,WNW,300,6.0,16.0,68,-99.99,,,-99.99,,2013-12-03 11:42:00,
2013-12-03 04:42:00,27.0,17.0,-100.00,NW,320,7.0,15.0,66,-99.99,,,-99.99,,2013-12-03 12:42:00,
2013-12-03 05:42:00,26.0,17.0,-100.00,WNW,290,4.0,12.0,68,-99.99,,,-99.99,,2013-12-03 13:42:00,
2013-12-03 06:42:00,26.0,17.0,-100.00,NNW,345,9.0,16.0,68,-99.99,,,-99.99,,2013-12-03 14:42:00,
2013-12-03 06:52:00,26.0,17.0,-100.00,North,350,7.0,16.0,68,-99.99,,,-99.99,,2013-12-03 14:52:00,
2013-12-03 07:02:00,26.0,17.0,-100.00,North,350,7.0,16.0,68,-99.99,,,-99.99,,2013-12-03 15:02:00,
2013-12-03 07:43:00,26.0,16.0,-100.00,NNW,340,10.0,17.0,67,-99.99,,,-99.99,,2013-12-03 15:43:00,
2013-12-03 08:13:00,25.0,16.0,-100.00,North,0,7.0,16.0,67,-99.99,,,-99.99,,2013-12-03 16:13:00,
2013-12-03 09:22:00,26.0,14.0,-100.00,NNW,345,11.0,19.0,60,-99.99,,,-99.99,,2013-12-03 17:22:00,
2013-12-03 09:42:00,26.0,14.0,-100.00,NNW,345,8.0,26.0,60,-99.99,,,-99.99,,2013-12-03 17:42:00,
2013-12-03 09:53:00,26.0,14.0,-100.00,NW,325,9.0,20.0,60,-99.99,,,-99.99,,2013-12-03 17:53:00,
2013-12-03 10:02:00,26.0,14.0,-100.00,NW,325,9.0,20.0,60,-99.99,,,-99.99,,2013-12-03 18:02:00,
2013-12-03 10:42:00,28.0,14.0,-100.00,NNW,345,14.0,22.0,55,-99.99,,,-99.99,,2013-12-03 18:42:00,
2013-12-03 11:11:00,30.0,14.0,-100.00,NW,315,7.0,15.0,51,-99.99,,,-99.99,,2013-12-03 19:11:00,
2013-12-03 11:42:00,30.0,13.0,-100.00,NW,320,9.0,19.0,50,-99.99,,,-99.99,,2013-12-03 19:42:00,
2013-12-03 12:42:00,30.0,13.0,-100.00,North,0,14.0,24.0,49,-99.99,,,-99.99,,2013-12-03 20:42:00,
2013-12-03 13:44:00,30.0,13.0,-100.00,NNW,340,14.0,22.0,50,-99.99,,,-99.99,,2013-12-03 21:44:00,
2013-12-03 14:43:00,30.0,11.0,-100.00,NW,315,11.0,22.0,45,-99.99,,,-99.99,,2013-12-03 22:43:00,
2013-12-03 15:12:00,31.0,10.0,-100.00,NW,325,11.0,23.0,40,-99.99,,,-99.99,,2013-12-03 23:12:00,
2013-12-03 15:42:00,32.0,8.0,-100.00,WNW,300,10.0,23.0,36,-99.99,,,-99.99,,2013-12-03 23:42:00,
2013-12-03 16:22:00,31.0,7.0,-100.00,NW,305,9.0,19.0,36,-99.99,,,-99.99,,2013-12-04 00:22:00,
2013-12-03 16:42:00,31.0,7.0,-100.00,West,260,6.0,17.0,36,-99.99,,,-99.99,,2013-12-04 00:42:00,
2013-12-03 17:42:00,30.0,8.0,-100.00,NW,320,14.0,22.0,40,-99.99,,,-99.99,,2013-12-04 01:42:00,
2013-12-03 18:21:00,28.0,9.0,-100.00,NW,310,12.0,22.0,44,-99.99,,,-99.99,,2013-12-04 02:21:00,
2013-12-03 18:32:00,28.0,9.0,-100.00,NW,310,12.0,22.0,44,-99.99,,,-99.99,,2013-12-04 02:32:00,
2013-12-03 19:43:00,27.0,11.0,-100.00,WNW,285,6.0,13.0,50,-99.99,,,-99.99,,2013-12-04 03:43:00,
2013-12-03 20:42:00,28.0,13.0,-100.00,North,0,6.0,18.0,52,-99.99,,,-99.99,,2013-12-04 04:42:00,
2013-12-03 20:52:00,28.0,13.0,-100.00,North,0,7.0,19.0,53,-99.99,,,-99.99,,2013-12-04 04:52:00,
2013-12-03 21:02:00,28.0,13.0,-100.00,North,0,7.0,19.0,53,-99.99,,,-99.99,,2013-12-04 05:02:00,
2013-12-03 21:42:00,27.0,13.0,-100.00,NW,305,7.0,17.0,55,-99.99,,,-99.99,,2013-12-04 05:42:00,
2013-12-03 22:42:00,27.0,11.0,-100.00,WNW,300,7.0,21.0,50,-99.99,,,-99.99,,2013-12-04 06:42:00,
2013-12-03 23:42:00,26.0,7.0,-100.00,NW,310,6.0,15.0,44,-99.99,,,-99.99,,2013-12-04 07:42:00,
2013-12-03 23:52:00,25.0,6.0,-100.00,NNW,330,9.0,17.0,43,-99.99,,,-99.99,,2013-12-04 07:52:00,